sensor_id;sensor_type;location;lat;lon;timestamp;temperature;humidity
9925;DHT22;5001;51.674;7.868;2023-06-10T00:02:22;19.70;99.90
9925;DHT22;5001;51.674;7.868;2023-06-10T00:04:49;19.70;99.90
9925;DHT22;5001;51.674;7.868;2023-06-10T00:07:17;19.90;99.90
9925;DHT22;5001;51.674;7.868;2023-06-10T00:09:44;19.80;99.90
9925;DHT22;5001;51.674;7.868;2023-06-10T00:12:11;19.90;99.90
9925;DHT22;5001;51.674;7.868;2023-06-10T00:14:39;19.90;99.90
9925;DHT22;5001;51.674;7.868;2023-06-10T00:17:09;20.00;99.90
9925;DHT22;5001;51.674;7.868;2023-06-10T00:19:37;20.00;99.90
9925;DHT22;5001;51.674;7.868;2023-06-10T00:22:08;20.20;99.90
9925;DHT22;5001;51.674;7.868;2023-06-10T00:24:38;20.20;99.90
9925;DHT22;5001;51.674;7.868;2023-06-10T00:27:06;20.20;99.90
9925;DHT22;5001;51.674;7.868;2023-06-10T00:29:34;20.20;99.90
9925;DHT22;5001;51.674;7.868;2023-06-10T00:32:01;20.20;99.90
9925;DHT22;5001;51.674;7.868;2023-06-10T00:34:28;20.00;99.90
9925;DHT22;5001;51.674;7.868;2023-06-10T00:36:57;20.20;99.90
9925;DHT22;5001;51.674;7.868;2023-06-10T00:39:25;20.00;99.90
9925;DHT22;5001;51.674;7.868;2023-06-10T00:41:52;20.00;99.90
9925;DHT22;5001;51.674;7.868;2023-06-10T00:44:19;20.00;99.90
9925;DHT22;5001;51.674;7.868;2023-06-10T00:46:46;20.10;99.90
9925;DHT22;5001;51.674;7.868;2023-06-10T00:49:14;20.20;99.90
9925;DHT22;5001;51.674;7.868;2023-06-10T00:51:42;20.20;99.90
9925;DHT22;5001;51.674;7.868;2023-06-10T00:54:09;20.10;99.90
9925;DHT22;5001;51.674;7.868;2023-06-10T00:56:40;20.00;99.90
9925;DHT22;5001;51.674;7.868;2023-06-10T00:59:09;20.00;99.90
9925;DHT22;5001;51.674;7.868;2023-06-10T01:01:36;20.00;99.90
9925;DHT22;5001;51.674;7.868;2023-06-10T01:04:05;20.00;99.90
9925;DHT22;5001;51.674;7.868;2023-06-10T01:09:59;19.90;99.90
9925;DHT22;5001;51.674;7.868;2023-06-10T01:12:35;19.80;99.90
9925;DHT22;5001;51.674;7.868;2023-06-10T01:15:07;19.70;99.90
9925;DHT22;5001;51.674;7.868;2023-06-10T01:20:23;19.70;99.90
9925;DHT22;5001;51.674;7.868;2023-06-10T01:22:51;19.60;99.90
9925;DHT22;5001;51.674;7.868;2023-06-10T01:25:22;19.60;99.90
9925;DHT22;5001;51.674;7.868;2023-06-10T01:33:43;19.60;99.90
9925;DHT22;5001;51.674;7.868;2023-06-10T01:36:11;19.60;99.90
9925;DHT22;5001;51.674;7.868;2023-06-10T01:38:44;19.60;99.90
9925;DHT22;5001;51.674;7.868;2023-06-10T01:41:15;19.60;99.90
9925;DHT22;5001;51.674;7.868;2023-06-10T01:43:44;19.60;99.90
9925;DHT22;5001;51.674;7.868;2023-06-10T01:46:13;19.60;99.90
9925;DHT22;5001;51.674;7.868;2023-06-10T01:48:42;19.50;99.90
9925;DHT22;5001;51.674;7.868;2023-06-10T01:51:09;19.50;99.90
9925;DHT22;5001;51.674;7.868;2023-06-10T01:53:36;19.50;99.90
9925;DHT22;5001;51.674;7.868;2023-06-10T01:56:04;19.50;99.90
9925;DHT22;5001;51.674;7.868;2023-06-10T01:58:31;19.50;99.90
9925;DHT22;5001;51.674;7.868;2023-06-10T02:00:58;19.40;99.90
9925;DHT22;5001;51.674;7.868;2023-06-10T02:03:25;19.40;99.90
9925;DHT22;5001;51.674;7.868;2023-06-10T02:05:55;19.30;99.90
9925;DHT22;5001;51.674;7.868;2023-06-10T02:08:22;19.50;99.90
9925;DHT22;5001;51.674;7.868;2023-06-10T02:10:50;19.50;99.90
9925;DHT22;5001;51.674;7.868;2023-06-10T02:13:17;19.50;99.90
9925;DHT22;5001;51.674;7.868;2023-06-10T02:15:47;19.50;99.90
9925;DHT22;5001;51.674;7.868;2023-06-10T02:18:16;19.20;99.90
9925;DHT22;5001;51.674;7.868;2023-06-10T02:20:43;19.20;99.90
9925;DHT22;5001;51.674;7.868;2023-06-10T02:23:10;19.20;99.90
9925;DHT22;5001;51.674;7.868;2023-06-10T02:25:37;19.10;99.90
9925;DHT22;5001;51.674;7.868;2023-06-10T02:28:06;19.00;99.90
9925;DHT22;5001;51.674;7.868;2023-06-10T02:30:33;19.00;99.90
9925;DHT22;5001;51.674;7.868;2023-06-10T02:33:02;19.00;99.90
9925;DHT22;5001;51.674;7.868;2023-06-10T02:35:29;19.00;99.90
9925;DHT22;5001;51.674;7.868;2023-06-10T02:37:56;18.90;99.90
9925;DHT22;5001;51.674;7.868;2023-06-10T02:40:24;18.90;99.90
9925;DHT22;5001;51.674;7.868;2023-06-10T02:42:51;18.90;99.90
9925;DHT22;5001;51.674;7.868;2023-06-10T02:45:19;19.00;99.90
9925;DHT22;5001;51.674;7.868;2023-06-10T02:47:46;19.00;99.90
9925;DHT22;5001;51.674;7.868;2023-06-10T02:50:14;19.10;99.90
9925;DHT22;5001;51.674;7.868;2023-06-10T02:52:59;19.00;99.90
9925;DHT22;5001;51.674;7.868;2023-06-10T02:55:26;19.00;99.90
9925;DHT22;5001;51.674;7.868;2023-06-10T02:57:59;18.90;99.90
9925;DHT22;5001;51.674;7.868;2023-06-10T03:00:28;19.20;99.90
9925;DHT22;5001;51.674;7.868;2023-06-10T03:02:55;18.80;99.90
9925;DHT22;5001;51.674;7.868;2023-06-10T03:05:31;19.00;99.90
9925;DHT22;5001;51.674;7.868;2023-06-10T03:08:02;19.00;99.90
9925;DHT22;5001;51.674;7.868;2023-06-10T03:10:32;19.10;99.90
9925;DHT22;5001;51.674;7.868;2023-06-10T03:13:00;19.20;99.90
9925;DHT22;5001;51.674;7.868;2023-06-10T03:15:28;19.20;99.90
9925;DHT22;5001;51.674;7.868;2023-06-10T03:17:56;19.20;99.90
9925;DHT22;5001;51.674;7.868;2023-06-10T03:20:23;19.10;99.90
9925;DHT22;5001;51.674;7.868;2023-06-10T03:22:50;19.10;99.90
9925;DHT22;5001;51.674;7.868;2023-06-10T03:25:21;19.20;99.90
9925;DHT22;5001;51.674;7.868;2023-06-10T03:27:52;19.10;99.90
9925;DHT22;5001;51.674;7.868;2023-06-10T03:30:20;19.10;99.90
9925;DHT22;5001;51.674;7.868;2023-06-10T03:32:48;19.20;99.90
9925;DHT22;5001;51.674;7.868;2023-06-10T03:35:18;19.30;99.90
9925;DHT22;5001;51.674;7.868;2023-06-10T03:37:46;19.30;99.90
9925;DHT22;5001;51.674;7.868;2023-06-10T03:40:13;19.30;99.90
9925;DHT22;5001;51.674;7.868;2023-06-10T03:42:44;19.30;99.90
9925;DHT22;5001;51.674;7.868;2023-06-10T03:45:13;19.40;99.90
9925;DHT22;5001;51.674;7.868;2023-06-10T03:47:41;19.30;99.90
9925;DHT22;5001;51.674;7.868;2023-06-10T03:50:13;19.40;99.90
9925;DHT22;5001;51.674;7.868;2023-06-10T03:52:42;19.50;99.90
9925;DHT22;5001;51.674;7.868;2023-06-10T03:55:12;19.80;99.90
9925;DHT22;5001;51.674;7.868;2023-06-10T03:57:43;19.90;99.90
9925;DHT22;5001;51.674;7.868;2023-06-10T04:00:11;20.10;99.90
9925;DHT22;5001;51.674;7.868;2023-06-10T04:02:43;20.00;99.90
9925;DHT22;5001;51.674;7.868;2023-06-10T04:05:35;20.20;99.90
9925;DHT22;5001;51.674;7.868;2023-06-10T04:08:04;20.70;99.90
9925;DHT22;5001;51.674;7.868;2023-06-10T04:10:32;20.90;99.90
9925;DHT22;5001;51.674;7.868;2023-06-10T04:13:00;20.90;99.90
9925;DHT22;5001;51.674;7.868;2023-06-10T04:15:32;20.80;99.90
9925;DHT22;5001;51.674;7.868;2023-06-10T04:18:04;20.90;99.90
9925;DHT22;5001;51.674;7.868;2023-06-10T04:20:33;21.20;99.90
9925;DHT22;5001;51.674;7.868;2023-06-10T04:23:00;21.40;99.90
9925;DHT22;5001;51.674;7.868;2023-06-10T04:25:29;21.60;99.90
9925;DHT22;5001;51.674;7.868;2023-06-10T04:27:57;22.00;99.90
9925;DHT22;5001;51.674;7.868;2023-06-10T04:30:25;22.50;99.90
9925;DHT22;5001;51.674;7.868;2023-06-10T04:32:53;22.60;99.90
9925;DHT22;5001;51.674;7.868;2023-06-10T04:35:21;22.80;99.90
9925;DHT22;5001;51.674;7.868;2023-06-10T04:37:48;23.00;99.90
9925;DHT22;5001;51.674;7.868;2023-06-10T04:40:16;23.00;99.90
9925;DHT22;5001;51.674;7.868;2023-06-10T04:42:45;23.40;99.90
9925;DHT22;5001;51.674;7.868;2023-06-10T04:45:12;23.40;99.90
9925;DHT22;5001;51.674;7.868;2023-06-10T04:47:40;23.80;99.90
9925;DHT22;5001;51.674;7.868;2023-06-10T04:50:08;23.70;99.90
9925;DHT22;5001;51.674;7.868;2023-06-10T04:52:35;24.00;99.90
9925;DHT22;5001;51.674;7.868;2023-06-10T04:55:03;24.40;99.90
9925;DHT22;5001;51.674;7.868;2023-06-10T04:57:31;24.60;99.90
9925;DHT22;5001;51.674;7.868;2023-06-10T04:59:58;24.60;99.90
9925;DHT22;5001;51.674;7.868;2023-06-10T05:02:25;25.00;99.90
9925;DHT22;5001;51.674;7.868;2023-06-10T05:04:52;25.00;99.90
9925;DHT22;5001;51.674;7.868;2023-06-10T05:07:21;24.90;99.90
9925;DHT22;5001;51.674;7.868;2023-06-10T05:09:48;24.60;99.90
9925;DHT22;5001;51.674;7.868;2023-06-10T05:12:16;24.50;99.90
9925;DHT22;5001;51.674;7.868;2023-06-10T05:14:43;24.60;99.90
9925;DHT22;5001;51.674;7.868;2023-06-10T05:17:11;24.90;99.90
9925;DHT22;5001;51.674;7.868;2023-06-10T05:19:39;25.10;99.90
9925;DHT22;5001;51.674;7.868;2023-06-10T05:22:08;25.40;99.90
9925;DHT22;5001;51.674;7.868;2023-06-10T05:24:35;26.00;99.90
9925;DHT22;5001;51.674;7.868;2023-06-10T05:27:02;25.50;99.90
9925;DHT22;5001;51.674;7.868;2023-06-10T05:29:29;24.60;99.20
9925;DHT22;5001;51.674;7.868;2023-06-10T05:31:56;24.60;99.90
9925;DHT22;5001;51.674;7.868;2023-06-10T05:34:24;24.60;99.90
9925;DHT22;5001;51.674;7.868;2023-06-10T05:36:52;25.20;99.90
9925;DHT22;5001;51.674;7.868;2023-06-10T05:39:19;25.90;99.90
9925;DHT22;5001;51.674;7.868;2023-06-10T05:41:46;26.30;99.90
9925;DHT22;5001;51.674;7.868;2023-06-10T05:44:13;26.20;99.90
9925;DHT22;5001;51.674;7.868;2023-06-10T05:46:40;25.90;99.90
9925;DHT22;5001;51.674;7.868;2023-06-10T05:49:07;25.50;99.90
9925;DHT22;5001;51.674;7.868;2023-06-10T05:51:35;25.50;99.90
9925;DHT22;5001;51.674;7.868;2023-06-10T05:54:04;25.90;99.90
9925;DHT22;5001;51.674;7.868;2023-06-10T05:56:31;26.40;99.90
9925;DHT22;5001;51.674;7.868;2023-06-10T05:58:58;26.70;99.90
9925;DHT22;5001;51.674;7.868;2023-06-10T06:01:25;27.20;99.90
9925;DHT22;5001;51.674;7.868;2023-06-10T06:03:53;26.90;99.90
9925;DHT22;5001;51.674;7.868;2023-06-10T06:06:20;26.60;99.90
9925;DHT22;5001;51.674;7.868;2023-06-10T06:08:47;27.30;99.90
9925;DHT22;5001;51.674;7.868;2023-06-10T06:11:14;27.30;99.90
9925;DHT22;5001;51.674;7.868;2023-06-10T06:13:42;27.90;99.90
9925;DHT22;5001;51.674;7.868;2023-06-10T06:16:09;28.00;99.90
9925;DHT22;5001;51.674;7.868;2023-06-10T06:18:36;28.30;99.90
9925;DHT22;5001;51.674;7.868;2023-06-10T06:21:03;28.60;99.90
9925;DHT22;5001;51.674;7.868;2023-06-10T06:23:30;28.60;99.90
9925;DHT22;5001;51.674;7.868;2023-06-10T06:25:58;28.30;99.90
9925;DHT22;5001;51.674;7.868;2023-06-10T06:28:25;28.30;99.90
9925;DHT22;5001;51.674;7.868;2023-06-10T06:30:56;28.70;99.90
9925;DHT22;5001;51.674;7.868;2023-06-10T06:33:24;28.90;99.90
9925;DHT22;5001;51.674;7.868;2023-06-10T06:35:53;29.10;99.90
9925;DHT22;5001;51.674;7.868;2023-06-10T06:38:20;29.20;99.90
9925;DHT22;5001;51.674;7.868;2023-06-10T06:40:47;29.70;99.90
9925;DHT22;5001;51.674;7.868;2023-06-10T06:43:14;28.40;99.90
9925;DHT22;5001;51.674;7.868;2023-06-10T06:45:57;28.40;99.90
9925;DHT22;5001;51.674;7.868;2023-06-10T06:48:24;29.20;99.90
9925;DHT22;5001;51.674;7.868;2023-06-10T06:50:52;28.80;99.90
9925;DHT22;5001;51.674;7.868;2023-06-10T06:53:20;28.50;99.90
9925;DHT22;5001;51.674;7.868;2023-06-10T06:55:47;28.70;99.90
9925;DHT22;5001;51.674;7.868;2023-06-10T06:58:14;30.00;99.90
9925;DHT22;5001;51.674;7.868;2023-06-10T07:00:41;30.50;99.90
9925;DHT22;5001;51.674;7.868;2023-06-10T07:03:09;31.40;98.60
9925;DHT22;5001;51.674;7.868;2023-06-10T07:05:36;31.30;98.10
9925;DHT22;5001;51.674;7.868;2023-06-10T07:08:03;31.00;98.30
9925;DHT22;5001;51.674;7.868;2023-06-10T07:10:33;31.50;98.00
9925;DHT22;5001;51.674;7.868;2023-06-10T07:13:00;30.30;97.20
9925;DHT22;5001;51.674;7.868;2023-06-10T07:15:27;31.30;99.00
9925;DHT22;5001;51.674;7.868;2023-06-10T07:17:54;32.40;97.80
9925;DHT22;5001;51.674;7.868;2023-06-10T07:20:22;32.70;97.10
9925;DHT22;5001;51.674;7.868;2023-06-10T07:22:49;32.90;97.30
9925;DHT22;5001;51.674;7.868;2023-06-10T07:25:16;32.60;95.70
9925;DHT22;5001;51.674;7.868;2023-06-10T07:27:44;32.30;95.90
9925;DHT22;5001;51.674;7.868;2023-06-10T07:30:11;32.40;95.60
9925;DHT22;5001;51.674;7.868;2023-06-10T07:32:38;32.70;95.60
9925;DHT22;5001;51.674;7.868;2023-06-10T07:35:08;33.30;95.40
9925;DHT22;5001;51.674;7.868;2023-06-10T07:37:37;33.00;95.00
9925;DHT22;5001;51.674;7.868;2023-06-10T07:40:05;34.00;95.20
9925;DHT22;5001;51.674;7.868;2023-06-10T07:42:34;34.40;94.00
9925;DHT22;5001;51.674;7.868;2023-06-10T07:45:01;34.10;93.30
9925;DHT22;5001;51.674;7.868;2023-06-10T07:47:29;32.90;92.70
9925;DHT22;5001;51.674;7.868;2023-06-10T07:49:56;33.30;93.50
9925;DHT22;5001;51.674;7.868;2023-06-10T07:52:24;33.60;93.90
9925;DHT22;5001;51.674;7.868;2023-06-10T07:54:52;34.40;92.50
9925;DHT22;5001;51.674;7.868;2023-06-10T07:57:19;34.30;92.20
9925;DHT22;5001;51.674;7.868;2023-06-10T07:59:47;34.90;92.50
9925;DHT22;5001;51.674;7.868;2023-06-10T08:02:14;34.40;90.70
9925;DHT22;5001;51.674;7.868;2023-06-10T08:04:41;34.80;91.10
9925;DHT22;5001;51.674;7.868;2023-06-10T08:07:08;35.80;90.30
9925;DHT22;5001;51.674;7.868;2023-06-10T08:09:35;35.50;90.60
9925;DHT22;5001;51.674;7.868;2023-06-10T08:12:02;35.10;89.30
9925;DHT22;5001;51.674;7.868;2023-06-10T08:14:30;35.30;90.40
9925;DHT22;5001;51.674;7.868;2023-06-10T08:16:57;35.60;90.00
9925;DHT22;5001;51.674;7.868;2023-06-10T08:19:24;35.20;87.10
9925;DHT22;5001;51.674;7.868;2023-06-10T08:21:52;34.10;87.00
9925;DHT22;5001;51.674;7.868;2023-06-10T08:24:19;33.80;87.90
9925;DHT22;5001;51.674;7.868;2023-06-10T08:26:47;32.80;86.60
9925;DHT22;5001;51.674;7.868;2023-06-10T08:29:14;32.60;87.70
9925;DHT22;5001;51.674;7.868;2023-06-10T08:31:42;33.60;88.70
9925;DHT22;5001;51.674;7.868;2023-06-10T08:34:11;34.10;88.70
9925;DHT22;5001;51.674;7.868;2023-06-10T08:36:38;35.60;87.20
9925;DHT22;5001;51.674;7.868;2023-06-10T08:39:06;35.60;85.70
9925;DHT22;5001;51.674;7.868;2023-06-10T08:41:36;34.80;85.40
9925;DHT22;5001;51.674;7.868;2023-06-10T08:44:22;35.80;84.60
9925;DHT22;5001;51.674;7.868;2023-06-10T08:46:59;35.00;84.00
9925;DHT22;5001;51.674;7.868;2023-06-10T08:49:31;34.70;87.50
9925;DHT22;5001;51.674;7.868;2023-06-10T08:52:02;34.50;84.90
9925;DHT22;5001;51.674;7.868;2023-06-10T08:54:33;34.50;84.00
9925;DHT22;5001;51.674;7.868;2023-06-10T08:57:05;34.40;83.80
9925;DHT22;5001;51.674;7.868;2023-06-10T08:59:33;35.10;83.10
9925;DHT22;5001;51.674;7.868;2023-06-10T09:02:02;34.60;82.10
9925;DHT22;5001;51.674;7.868;2023-06-10T09:04:31;34.20;84.20
9925;DHT22;5001;51.674;7.868;2023-06-10T09:06:59;35.10;82.10
9925;DHT22;5001;51.674;7.868;2023-06-10T09:09:29;35.30;82.10
9925;DHT22;5001;51.674;7.868;2023-06-10T09:11:59;34.60;80.50
9925;DHT22;5001;51.674;7.868;2023-06-10T09:14:27;34.60;78.90
9925;DHT22;5001;51.674;7.868;2023-06-10T09:16:57;34.50;82.30
9925;DHT22;5001;51.674;7.868;2023-06-10T09:19:26;34.80;79.80
9925;DHT22;5001;51.674;7.868;2023-06-10T09:21:54;35.30;79.90
9925;DHT22;5001;51.674;7.868;2023-06-10T09:24:22;35.20;77.90
9925;DHT22;5001;51.674;7.868;2023-06-10T09:26:56;34.60;79.40
9925;DHT22;5001;51.674;7.868;2023-06-10T09:29:28;34.70;79.40
9925;DHT22;5001;51.674;7.868;2023-06-10T09:31:56;35.00;78.30
9925;DHT22;5001;51.674;7.868;2023-06-10T09:34:25;34.80;75.60
9925;DHT22;5001;51.674;7.868;2023-06-10T09:36:53;34.00;78.10
9925;DHT22;5001;51.674;7.868;2023-06-10T09:39:20;33.90;74.90
9925;DHT22;5001;51.674;7.868;2023-06-10T09:41:47;33.80;78.50
9925;DHT22;5001;51.674;7.868;2023-06-10T09:44:18;33.80;75.90
9925;DHT22;5001;51.674;7.868;2023-06-10T09:46:48;34.40;76.90
9925;DHT22;5001;51.674;7.868;2023-06-10T09:49:17;34.90;74.70
9925;DHT22;5001;51.674;7.868;2023-06-10T09:51:52;34.90;74.70
9925;DHT22;5001;51.674;7.868;2023-06-10T09:54:21;34.20;73.70
9925;DHT22;5001;51.674;7.868;2023-06-10T09:56:52;34.00;76.20
9925;DHT22;5001;51.674;7.868;2023-06-10T09:59:29;34.50;73.80
9925;DHT22;5001;51.674;7.868;2023-06-10T10:01:59;34.50;72.70
9925;DHT22;5001;51.674;7.868;2023-06-10T10:04:27;34.40;74.00
9925;DHT22;5001;51.674;7.868;2023-06-10T10:06:55;34.20;94.40
9925;DHT22;5001;51.674;7.868;2023-06-10T10:09:22;34.60;74.80
9925;DHT22;5001;51.674;7.868;2023-06-10T10:11:52;35.30;72.90
9925;DHT22;5001;51.674;7.868;2023-06-10T10:14:21;35.10;71.20
9925;DHT22;5001;51.674;7.868;2023-06-10T10:16:51;34.40;71.90
9925;DHT22;5001;51.674;7.868;2023-06-10T10:19:28;35.30;74.00
9925;DHT22;5001;51.674;7.868;2023-06-10T10:22:08;35.00;70.80
9925;DHT22;5001;51.674;7.868;2023-06-10T10:24:46;34.50;71.70
9925;DHT22;5001;51.674;7.868;2023-06-10T10:27:28;34.70;72.10
9925;DHT22;5001;51.674;7.868;2023-06-10T10:29:58;35.40;70.40
9925;DHT22;5001;51.674;7.868;2023-06-10T10:32:37;35.30;68.80
9925;DHT22;5001;51.674;7.868;2023-06-10T10:35:08;35.30;71.20
9925;DHT22;5001;51.674;7.868;2023-06-10T10:37:36;34.70;67.50
9925;DHT22;5001;51.674;7.868;2023-06-10T10:40:04;34.30;68.50
9925;DHT22;5001;51.674;7.868;2023-06-10T10:42:32;34.60;68.50
9925;DHT22;5001;51.674;7.868;2023-06-10T10:45:00;35.10;69.90
9925;DHT22;5001;51.674;7.868;2023-06-10T10:47:28;34.40;66.80
9925;DHT22;5001;51.674;7.868;2023-06-10T10:49:57;33.90;67.20
9925;DHT22;5001;51.674;7.868;2023-06-10T10:52:27;33.20;67.10
9925;DHT22;5001;51.674;7.868;2023-06-10T10:54:54;33.80;68.50
9925;DHT22;5001;51.674;7.868;2023-06-10T10:57:23;34.00;67.00
9925;DHT22;5001;51.674;7.868;2023-06-10T10:59:58;33.80;67.80
9925;DHT22;5001;51.674;7.868;2023-06-10T11:02:41;34.10;67.50
9925;DHT22;5001;51.674;7.868;2023-06-10T11:05:13;34.00;67.80
9925;DHT22;5001;51.674;7.868;2023-06-10T11:08:01;33.60;67.40
9925;DHT22;5001;51.674;7.868;2023-06-10T11:10:33;34.00;67.00
9925;DHT22;5001;51.674;7.868;2023-06-10T11:13:23;34.80;65.30
9925;DHT22;5001;51.674;7.868;2023-06-10T11:15:52;35.50;66.30
9925;DHT22;5001;51.674;7.868;2023-06-10T11:18:30;33.60;65.40
9925;DHT22;5001;51.674;7.868;2023-06-10T11:21:03;33.30;68.20
9925;DHT22;5001;51.674;7.868;2023-06-10T11:23:38;33.50;71.20
9925;DHT22;5001;51.674;7.868;2023-06-10T11:26:29;33.50;67.30
9925;DHT22;5001;51.674;7.868;2023-06-10T11:29:06;33.30;67.80
9925;DHT22;5001;51.674;7.868;2023-06-10T11:31:43;34.10;65.90
9925;DHT22;5001;51.674;7.868;2023-06-10T11:34:12;34.70;65.90
9925;DHT22;5001;51.674;7.868;2023-06-10T11:36:41;34.50;67.10
9925;DHT22;5001;51.674;7.868;2023-06-10T11:39:10;34.70;64.60
9925;DHT22;5001;51.674;7.868;2023-06-10T11:41:39;35.00;64.30
9925;DHT22;5001;51.674;7.868;2023-06-10T11:44:13;34.00;64.30
9925;DHT22;5001;51.674;7.868;2023-06-10T11:46:47;34.20;65.50
9925;DHT22;5001;51.674;7.868;2023-06-10T11:49:15;34.40;73.90
9925;DHT22;5001;51.674;7.868;2023-06-10T11:51:43;33.50;62.90
9925;DHT22;5001;51.674;7.868;2023-06-10T11:54:18;33.90;63.30
9925;DHT22;5001;51.674;7.868;2023-06-10T11:56:46;33.60;64.20
9925;DHT22;5001;51.674;7.868;2023-06-10T11:59:14;33.50;63.90
9925;DHT22;5001;51.674;7.868;2023-06-10T12:01:43;33.20;62.60
9925;DHT22;5001;51.674;7.868;2023-06-10T12:04:12;32.60;65.00
9925;DHT22;5001;51.674;7.868;2023-06-10T12:06:48;33.30;64.40
9925;DHT22;5001;51.674;7.868;2023-06-10T12:19:58;32.70;65.90
9925;DHT22;5001;51.674;7.868;2023-06-10T12:22:26;33.20;62.10
9925;DHT22;5001;51.674;7.868;2023-06-10T12:25:02;33.00;63.50
9925;DHT22;5001;51.674;7.868;2023-06-10T12:27:31;31.90;64.50
9925;DHT22;5001;51.674;7.868;2023-06-10T12:29:59;31.40;64.40
9925;DHT22;5001;51.674;7.868;2023-06-10T12:32:40;31.80;64.40
9925;DHT22;5001;51.674;7.868;2023-06-10T12:35:09;31.80;64.50
9925;DHT22;5001;51.674;7.868;2023-06-10T12:37:41;32.00;65.30
9925;DHT22;5001;51.674;7.868;2023-06-10T12:40:10;31.60;64.50
9925;DHT22;5001;51.674;7.868;2023-06-10T12:42:38;31.40;64.50
9925;DHT22;5001;51.674;7.868;2023-06-10T12:45:06;30.90;65.40
9925;DHT22;5001;51.674;7.868;2023-06-10T12:47:37;30.50;66.50
9925;DHT22;5001;51.674;7.868;2023-06-10T12:50:07;30.50;65.40
9925;DHT22;5001;51.674;7.868;2023-06-10T12:52:35;30.90;65.40
9925;DHT22;5001;51.674;7.868;2023-06-10T12:55:04;31.20;68.00
9925;DHT22;5001;51.674;7.868;2023-06-10T12:57:31;31.00;64.90
9925;DHT22;5001;51.674;7.868;2023-06-10T12:59:58;31.10;66.30
9925;DHT22;5001;51.674;7.868;2023-06-10T13:02:31;30.60;65.60
9925;DHT22;5001;51.674;7.868;2023-06-10T13:04:58;30.10;64.90
9925;DHT22;5001;51.674;7.868;2023-06-10T13:07:26;30.40;66.60
9925;DHT22;5001;51.674;7.868;2023-06-10T13:09:53;30.70;65.20
9925;DHT22;5001;51.674;7.868;2023-06-10T13:12:20;30.40;65.50
9925;DHT22;5001;51.674;7.868;2023-06-10T13:15:08;30.40;66.20
9925;DHT22;5001;51.674;7.868;2023-06-10T13:17:38;30.80;66.10
9925;DHT22;5001;51.674;7.868;2023-06-10T13:20:07;31.00;64.50
9925;DHT22;5001;51.674;7.868;2023-06-10T13:22:35;30.80;65.80
9925;DHT22;5001;51.674;7.868;2023-06-10T13:25:04;30.50;65.80
9925;DHT22;5001;51.674;7.868;2023-06-10T13:27:32;30.20;65.60
9925;DHT22;5001;51.674;7.868;2023-06-10T13:29:59;30.60;67.00
9925;DHT22;5001;51.674;7.868;2023-06-10T13:32:26;30.50;64.00
9925;DHT22;5001;51.674;7.868;2023-06-10T13:34:53;30.10;65.30
9925;DHT22;5001;51.674;7.868;2023-06-10T13:37:20;30.20;65.50
9925;DHT22;5001;51.674;7.868;2023-06-10T13:39:47;30.30;65.20
9925;DHT22;5001;51.674;7.868;2023-06-10T13:42:20;30.10;74.80
9925;DHT22;5001;51.674;7.868;2023-06-10T13:44:48;29.90;66.50
9925;DHT22;5001;51.674;7.868;2023-06-10T13:47:15;30.10;66.80
9925;DHT22;5001;51.674;7.868;2023-06-10T13:49:42;30.00;66.10
9925;DHT22;5001;51.674;7.868;2023-06-10T13:52:09;30.00;65.20
9925;DHT22;5001;51.674;7.868;2023-06-10T13:54:36;29.90;66.30
9925;DHT22;5001;51.674;7.868;2023-06-10T13:57:04;30.20;66.00
9925;DHT22;5001;51.674;7.868;2023-06-10T13:59:31;30.30;66.20
9925;DHT22;5001;51.674;7.868;2023-06-10T14:01:58;30.30;66.10
9925;DHT22;5001;51.674;7.868;2023-06-10T14:04:25;30.50;65.90
9925;DHT22;5001;51.674;7.868;2023-06-10T14:06:52;30.20;65.70
9925;DHT22;5001;51.674;7.868;2023-06-10T14:09:20;30.20;66.80
9925;DHT22;5001;51.674;7.868;2023-06-10T14:11:47;30.30;65.30
9925;DHT22;5001;51.674;7.868;2023-06-10T14:14:14;30.20;65.90
9925;DHT22;5001;51.674;7.868;2023-06-10T14:16:41;30.10;67.50
9925;DHT22;5001;51.674;7.868;2023-06-10T14:19:09;29.90;66.10
9925;DHT22;5001;51.674;7.868;2023-06-10T14:21:36;30.00;66.40
9925;DHT22;5001;51.674;7.868;2023-06-10T14:24:03;30.10;65.50
9925;DHT22;5001;51.674;7.868;2023-06-10T14:26:31;30.30;67.90
9925;DHT22;5001;51.674;7.868;2023-06-10T14:28:59;29.80;65.60
9925;DHT22;5001;51.674;7.868;2023-06-10T14:31:26;29.90;66.60
9925;DHT22;5001;51.674;7.868;2023-06-10T14:33:54;30.30;66.90
9925;DHT22;5001;51.674;7.868;2023-06-10T14:36:22;30.50;67.00
9925;DHT22;5001;51.674;7.868;2023-06-10T14:38:49;30.10;65.50
9925;DHT22;5001;51.674;7.868;2023-06-10T14:41:16;29.80;66.40
9925;DHT22;5001;51.674;7.868;2023-06-10T14:43:43;29.70;66.20
9925;DHT22;5001;51.674;7.868;2023-06-10T14:46:11;29.70;66.60
9925;DHT22;5001;51.674;7.868;2023-06-10T14:48:38;29.80;66.70
9925;DHT22;5001;51.674;7.868;2023-06-10T14:51:06;29.70;66.10
9925;DHT22;5001;51.674;7.868;2023-06-10T14:53:33;29.60;67.40
9925;DHT22;5001;51.674;7.868;2023-06-10T14:56:00;29.60;67.70
9925;DHT22;5001;51.674;7.868;2023-06-10T14:58:28;29.60;68.40
9925;DHT22;5001;51.674;7.868;2023-06-10T15:00:55;29.80;67.00
9925;DHT22;5001;51.674;7.868;2023-06-10T15:03:22;29.70;67.90
9925;DHT22;5001;51.674;7.868;2023-06-10T15:05:49;29.90;68.60
9925;DHT22;5001;51.674;7.868;2023-06-10T15:08:16;29.90;66.60
9925;DHT22;5001;51.674;7.868;2023-06-10T15:10:43;29.90;67.00
9925;DHT22;5001;51.674;7.868;2023-06-10T15:13:11;29.80;68.60
9925;DHT22;5001;51.674;7.868;2023-06-10T15:15:38;29.60;67.40
9925;DHT22;5001;51.674;7.868;2023-06-10T15:18:05;29.80;68.80
9925;DHT22;5001;51.674;7.868;2023-06-10T15:20:32;29.90;67.90
9925;DHT22;5001;51.674;7.868;2023-06-10T15:22:59;29.90;68.20
9925;DHT22;5001;51.674;7.868;2023-06-10T15:25:27;30.10;68.20
9925;DHT22;5001;51.674;7.868;2023-06-10T15:27:58;29.90;67.10
9925;DHT22;5001;51.674;7.868;2023-06-10T15:30:25;29.70;87.30
9925;DHT22;5001;51.674;7.868;2023-06-10T15:32:55;29.60;68.10
9925;DHT22;5001;51.674;7.868;2023-06-10T15:35:22;29.50;69.20
9925;DHT22;5001;51.674;7.868;2023-06-10T15:37:49;29.70;68.40
9925;DHT22;5001;51.674;7.868;2023-06-10T15:40:16;29.60;67.50
9925;DHT22;5001;51.674;7.868;2023-06-10T15:42:44;29.60;67.60
9925;DHT22;5001;51.674;7.868;2023-06-10T15:45:11;29.60;67.30
9925;DHT22;5001;51.674;7.868;2023-06-10T15:47:39;29.70;67.90
9925;DHT22;5001;51.674;7.868;2023-06-10T15:50:09;29.70;70.20
9925;DHT22;5001;51.674;7.868;2023-06-10T15:52:37;29.70;70.20
9925;DHT22;5001;51.674;7.868;2023-06-10T15:55:04;29.60;68.60
9925;DHT22;5001;51.674;7.868;2023-06-10T15:57:31;29.50;69.00
9925;DHT22;5001;51.674;7.868;2023-06-10T15:59:58;29.60;69.20
9925;DHT22;5001;51.674;7.868;2023-06-10T16:02:25;29.50;68.40
9925;DHT22;5001;51.674;7.868;2023-06-10T16:04:53;29.50;68.30
9925;DHT22;5001;51.674;7.868;2023-06-10T16:07:20;29.60;69.40
9925;DHT22;5001;51.674;7.868;2023-06-10T16:09:47;29.60;69.30
9925;DHT22;5001;51.674;7.868;2023-06-10T16:12:14;29.50;71.20
9925;DHT22;5001;51.674;7.868;2023-06-10T16:14:41;29.50;69.70
9925;DHT22;5001;51.674;7.868;2023-06-10T16:17:11;29.50;69.40
9925;DHT22;5001;51.674;7.868;2023-06-10T16:19:38;29.50;70.20
9925;DHT22;5001;51.674;7.868;2023-06-10T16:22:07;29.60;68.40
9925;DHT22;5001;51.674;7.868;2023-06-10T16:24:35;29.60;70.10
9925;DHT22;5001;51.674;7.868;2023-06-10T16:27:02;29.60;69.90
9925;DHT22;5001;51.674;7.868;2023-06-10T16:29:29;29.50;71.80
9925;DHT22;5001;51.674;7.868;2023-06-10T16:31:57;29.50;72.10
9925;DHT22;5001;51.674;7.868;2023-06-10T16:34:28;29.60;71.10
9925;DHT22;5001;51.674;7.868;2023-06-10T16:36:57;29.50;70.50